Time;durP1;ratioP1;P1;durP2;ratioP2;P2;SDS_P1;SDS_P2;PMS_P1;PMS_P2;Temp;Humidity;BMP_temperature;BMP_pressure;BME280_temperature;BME280_humidity;BME280_pressure;Samples;Min_cycle;Max_cycle;Signal;HPM_P1;HPM_P2
2022/06/09 00:00:21;;;;;;;1.73;0.80;;;21.80;87.00;;;;;;5119779;27;20408;-93
2022/06/09 00:02:51;;;;;;;0.80;0.80;;;21.90;87.00;;;;;;5117040;27;20546;-93
2022/06/09 00:05:17;;;;;;;1.43;1.00;;;21.80;87.00;;;;;;5118251;27;20188;-93
2022/06/09 00:07:45;;;;;;;1.00;0.90;;;21.80;86.90;;;;;;5119353;27;20279;-93
2022/06/09 00:10:20;;;;;;;0.93;0.93;;;21.80;86.90;;;;;;5120335;27;20185;-94
2022/06/09 00:12:46;;;;;;;1.73;0.80;;;21.80;86.90;;;;;;5120210;27;20180;-94
2022/06/09 00:15:13;;;;;;;1.60;1.00;;;21.80;86.90;;;;;;5121781;27;20452;-94
2022/06/09 00:17:40;;;;;;;1.23;0.93;;;21.80;86.90;;;;;;5121559;27;20181;-93
2022/06/09 00:20:07;;;;;;;0.83;0.80;;;21.80;86.90;;;;;;5121052;27;20165;-94
2022/06/09 00:22:33;;;;;;;0.97;0.87;;;21.80;87.00;;;;;;5121249;27;20351;-93
2022/06/09 00:24:59;;;;;;;1.03;0.80;;;21.80;86.90;;;;;;5120095;27;20173;-94
2022/06/09 00:27:25;;;;;;;2.20;1.03;;;21.80;86.90;;;;;;5120485;28;20178;-93
2022/06/09 00:29:51;;;;;;;1.10;0.90;;;21.80;86.90;;;;;;5120715;27;20554;-94
2022/06/09 00:32:17;;;;;;;1.40;0.97;;;21.70;86.80;;;;;;5121050;27;20189;-93
2022/06/09 00:34:43;;;;;;;1.80;1.00;;;21.70;86.80;;;;;;5121182;27;20173;-94
2022/06/09 00:37:12;;;;;;;1.40;1.00;;;21.70;86.80;;;;;;5119163;28;20166;-93
2022/06/09 00:39:38;;;;;;;1.23;1.00;;;21.70;86.80;;;;;;5120094;28;20176;-93
2022/06/09 00:42:05;;;;;;;1.60;1.10;;;21.70;86.90;;;;;;5120360;28;20176;-93
2022/06/09 00:44:31;;;;;;;2.63;1.13;;;21.70;86.90;;;;;;5119650;28;20204;-93
2022/06/09 00:46:59;;;;;;;1.43;1.00;;;21.70;86.80;;;;;;5118552;28;20550;-93
2022/06/09 00:49:33;;;;;;;1.47;0.90;;;21.70;86.80;;;;;;5118526;28;20506;-93
2022/06/09 00:52:02;;;;;;;1.00;0.90;;;21.70;86.80;;;;;;5118407;28;20181;-93
2022/06/09 00:54:35;;;;;;;1.27;0.93;;;21.70;86.80;;;;;;5118307;28;20271;-94
2022/06/09 00:57:05;;;;;;;0.80;0.80;;;21.70;86.80;;;;;;5119800;28;20206;-94
2022/06/09 00:59:34;;;;;;;1.27;0.80;;;21.70;86.80;;;;;;5118500;28;20180;-93
2022/06/09 01:02:02;;;;;;;2.20;1.00;;;21.70;86.70;;;;;;5119208;28;20554;-93
2022/06/09 01:04:31;;;;;;;1.43;0.97;;;21.60;86.70;;;;;;5121142;28;20512;-93
2022/06/09 01:07:04;;;;;;;2.60;0.90;;;21.70;86.70;;;;;;5122705;28;20169;-94
2022/06/09 01:09:31;;;;;;;1.37;0.87;;;21.70;86.70;;;;;;5120825;28;20640;-94
2022/06/09 01:11:57;;;;;;;1.37;0.90;;;21.70;86.60;;;;;;5119325;28;20169;-93
2022/06/09 01:14:32;;;;;;;1.00;0.93;;;21.70;86.60;;;;;;5119344;28;20176;-93
2022/06/09 01:17:17;;;;;;;0.80;0.80;;;21.60;86.50;;;;;;5121816;28;20647;-94
2022/06/09 01:20:01;;;;;;;0.97;0.80;;;21.60;86.50;;;;;;5120955;28;20176;-94
2022/06/09 01:22:51;;;;;;;1.27;1.00;;;21.60;86.60;;;;;;5120523;28;20168;-94
2022/06/09 01:25:34;;;;;;;1.13;0.93;;;21.60;86.50;;;;;;5119857;28;20178;-93
2022/06/09 01:28:22;;;;;;;1.37;0.90;;;21.60;86.50;;;;;;5120103;28;20176;-94
2022/06/09 01:31:11;;;;;;;1.07;0.73;;;21.60;86.50;;;;;;5120462;27;20369;-93
2022/06/09 01:33:46;;;;;;;0.93;0.80;;;21.60;86.50;;;;;;5124416;27;20185;-94
2022/06/09 01:36:14;;;;;;;0.80;0.80;;;21.60;86.50;;;;;;5125735;27;20208;-94
2022/06/09 01:38:56;;;;;;;0.90;0.80;;;21.60;86.50;;;;;;5126448;27;20204;-94
2022/06/09 01:41:25;;;;;;;1.10;0.77;;;21.60;86.50;;;;;;5128637;27;20185;-94
2022/06/09 01:43:54;;;;;;;1.63;0.80;;;21.60;86.40;;;;;;5129512;27;20177;-95
2022/06/09 01:46:30;;;;;;;1.00;0.70;;;21.60;86.40;;;;;;5128660;27;20209;-94
2022/06/09 01:49:10;;;;;;;0.90;0.70;;;21.60;86.40;;;;;;5129612;27;20169;-93
2022/06/09 01:51:41;;;;;;;1.33;0.80;;;21.60;86.40;;;;;;5128376;27;20211;-94
2022/06/09 01:54:14;;;;;;;1.07;0.80;;;21.50;86.20;;;;;;5128180;27;20181;-94
2022/06/09 01:57:21;;;;;;;1.33;1.00;;;21.50;86.20;;;;;;5126775;27;20213;-94
2022/06/09 01:59:58;;;;;;;1.50;0.80;;;21.50;86.20;;;;;;5026398;28;20464;-94
2022/06/09 02:02:47;;;;;;;1.20;0.80;;;21.50;86.20;;;;;;5120097;27;20249;-94
2022/06/09 02:05:22;;;;;;;0.80;0.77;;;21.50;86.10;;;;;;5134177;27;20187;-94
2022/06/09 02:07:50;;;;;;;1.13;0.90;;;21.50;86.20;;;;;;5133447;27;20170;-94
2022/06/09 02:10:17;;;;;;;0.80;0.80;;;21.50;86.10;;;;;;5130494;27;20168;-94
2022/06/09 02:12:48;;;;;;;1.17;0.80;;;21.50;86.10;;;;;;5130873;27;20169;-94
2022/06/09 02:15:20;;;;;;;2.30;0.80;;;21.50;86.10;;;;;;5133618;27;20193;-94
2022/06/09 02:17:49;;;;;;;0.97;0.90;;;21.50;86.10;;;;;;5129297;27;20751;-94
2022/06/09 02:20:18;;;;;;;1.10;0.90;;;21.50;86.10;;;;;;5131444;27;20173;-94
2022/06/09 02:22:44;;;;;;;0.80;0.80;;;21.50;86.00;;;;;;5132619;27;20194;-94
2022/06/09 02:25:11;;;;;;;1.00;0.90;;;21.50;86.00;;;;;;5133194;27;20191;-94
2022/06/09 02:27:37;;;;;;;1.53;1.00;;;21.50;86.00;;;;;;5130785;27;20244;-94
2022/06/09 02:30:04;;;;;;;1.07;0.97;;;21.50;86.00;;;;;;5130315;27;20243;-94
2022/06/09 02:32:32;;;;;;;2.30;0.87;;;21.50;86.00;;;;;;5131462;27;20184;-94
2022/06/09 02:34:58;;;;;;;1.20;0.97;;;21.50;86.00;;;;;;5133711;27;20226;-95
2022/06/09 02:37:24;;;;;;;1.10;0.87;;;21.50;86.00;;;;;;5132915;27;20172;-94
2022/06/09 02:39:49;;;;;;;1.23;1.03;;;21.50;86.00;;;;;;5132857;27;20167;-94
2022/06/09 02:42:16;;;;;;;0.70;0.70;;;21.50;86.00;;;;;;5131611;27;20162;-94
2022/06/09 02:44:41;;;;;;;1.37;0.97;;;21.50;86.00;;;;;;5131770;27;20568;-93
2022/06/09 02:47:07;;;;;;;1.00;0.90;;;21.50;86.00;;;;;;5129216;27;20229;-93
2022/06/09 02:49:33;;;;;;;1.37;0.70;;;21.40;85.90;;;;;;5131603;27;20177;-94
2022/06/09 02:52:01;;;;;;;1.27;0.90;;;21.40;85.80;;;;;;5132322;27;20187;-94
2022/06/09 02:54:27;;;;;;;1.00;0.80;;;21.40;85.90;;;;;;5132460;27;20221;-93
2022/06/09 02:56:55;;;;;;;1.17;0.90;;;21.40;85.80;;;;;;5132120;27;20203;-93
2022/06/09 02:59:21;;;;;;;0.90;0.90;;;21.40;85.80;;;;;;5131384;27;20173;-93
2022/06/09 03:01:47;;;;;;;1.23;0.87;;;21.40;85.80;;;;;;5130192;27;20182;-93
2022/06/09 03:04:12;;;;;;;0.90;0.83;;;21.40;85.80;;;;;;5132884;27;20540;-93
2022/06/09 03:06:38;;;;;;;1.43;0.80;;;21.40;85.80;;;;;;5130344;27;20179;-93
2022/06/09 03:09:23;;;;;;;1.00;0.90;;;21.40;85.80;;;;;;5130877;27;20247;-93
2022/06/09 03:11:49;;;;;;;0.80;0.80;;;21.40;85.80;;;;;;5133524;27;20172;-93
2022/06/09 03:14:15;;;;;;;1.37;0.90;;;21.40;85.70;;;;;;5132233;27;20188;-93
2022/06/09 03:16:40;;;;;;;1.20;0.83;;;21.40;85.70;;;;;;5133523;27;20304;-93
2022/06/09 03:19:06;;;;;;;1.17;1.07;;;21.40;85.70;;;;;;5133231;27;20170;-93
2022/06/09 03:21:32;;;;;;;1.30;0.90;;;21.40;85.70;;;;;;5134911;27;20171;-93
2022/06/09 03:23:58;;;;;;;1.33;0.90;;;21.40;85.70;;;;;;5133112;27;20181;-93
2022/06/09 03:26:24;;;;;;;1.67;0.80;;;21.40;85.70;;;;;;5134237;27;20181;-94
2022/06/09 03:29:20;;;;;;;1.00;0.83;;;21.30;85.70;;;;;;5134214;27;20176;-93
2022/06/09 03:31:47;;;;;;;0.80;0.80;;;21.40;85.70;;;;;;5137099;27;20158;-94
2022/06/09 03:34:13;;;;;;;1.73;0.90;;;21.40;85.70;;;;;;5136525;27;20164;-93
2022/06/09 03:36:39;;;;;;;1.20;1.00;;;21.30;85.60;;;;;;5137470;27;20217;-93
2022/06/09 03:39:12;;;;;;;0.97;0.90;;;21.40;85.70;;;;;;5137136;27;20172;-94
2022/06/09 03:41:38;;;;;;;1.20;0.90;;;21.40;85.70;;;;;;5138175;27;20181;-93
2022/06/09 03:44:05;;;;;;;2.40;1.00;;;21.40;85.70;;;;;;5137125;27;20313;-93
2022/06/09 03:46:31;;;;;;;1.47;0.70;;;21.40;85.70;;;;;;5138340;27;20175;-93
2022/06/09 03:49:03;;;;;;;1.23;0.90;;;21.30;85.60;;;;;;5139107;27;20181;-94
2022/06/09 03:51:29;;;;;;;0.80;0.80;;;21.30;85.60;;;;;;5137937;27;20176;-93
2022/06/09 03:53:55;;;;;;;1.67;0.83;;;21.30;85.50;;;;;;5137190;27;20176;-94
2022/06/09 03:56:22;;;;;;;1.10;0.90;;;21.30;85.50;;;;;;5137850;27;20219;-94
2022/06/09 03:58:47;;;;;;;0.93;0.80;;;21.30;85.50;;;;;;5138423;27;20173;-93
2022/06/09 04:01:17;;;;;;;2.80;1.00;;;21.30;85.50;;;;;;5135751;27;20201;-93
2022/06/09 04:03:45;;;;;;;0.87;0.87;;;21.30;85.50;;;;;;5127848;27;20217;-93
2022/06/09 04:06:19;;;;;;;1.50;0.97;;;21.30;85.50;;;;;;5131158;27;20174;-93
2022/06/09 04:08:45;;;;;;;0.83;0.83;;;21.30;85.50;;;;;;5132161;27;20177;-93
2022/06/09 04:11:11;;;;;;;1.23;1.07;;;21.30;85.40;;;;;;5130679;27;20212;-93
2022/06/09 04:13:38;;;;;;;1.07;0.97;;;21.30;85.40;;;;;;5129940;28;20275;-93
2022/06/09 04:16:32;;;;;;;0.70;0.70;;;21.30;85.40;;;;;;5129885;27;20347;-93
2022/06/09 04:19:00;;;;;;;1.60;1.00;;;21.30;85.40;;;;;;5126074;27;20409;-93
2022/06/09 04:21:28;;;;;;;1.60;1.10;;;21.30;85.40;;;;;;5127661;27;20495;-93
2022/06/09 04:23:59;;;;;;;1.03;0.90;;;21.30;85.30;;;;;;5131586;27;20184;-93
2022/06/09 04:26:28;;;;;;;1.60;1.07;;;21.30;85.30;;;;;;5127390;28;20228;-93
2022/06/09 04:28:55;;;;;;;1.10;0.83;;;21.30;85.30;;;;;;5127113;28;20171;-93
2022/06/09 04:31:20;;;;;;;1.50;1.00;;;21.30;85.30;;;;;;5127164;27;20188;-93
2022/06/09 04:33:47;;;;;;;1.10;1.00;;;21.30;85.30;;;;;;5127586;27;20171;-93
2022/06/09 04:36:15;;;;;;;1.30;1.00;;;21.30;85.40;;;;;;5127862;28;20240;-93
2022/06/09 04:38:40;;;;;;;2.43;1.07;;;21.30;85.40;;;;;;5127512;28;20173;-93
2022/06/09 04:41:09;;;;;;;1.40;0.97;;;21.20;85.40;;;;;;5128872;28;20168;-93
2022/06/09 04:43:38;;;;;;;0.87;0.80;;;21.30;85.40;;;;;;5129866;28;20404;-93
2022/06/09 04:46:05;;;;;;;1.47;1.00;;;21.30;85.50;;;;;;5131138;28;20171;-93
2022/06/09 04:48:32;;;;;;;0.83;0.80;;;21.20;85.50;;;;;;5128465;28;20200;-93
2022/06/09 04:50:58;;;;;;;1.10;1.00;;;21.30;85.50;;;;;;5129509;28;20180;-93
2022/06/09 04:53:24;;;;;;;1.20;1.00;;;21.30;85.60;;;;;;5130052;28;20188;-93
2022/06/09 04:55:50;;;;;;;1.00;0.90;;;21.30;85.60;;;;;;5128031;28;20317;-93
2022/06/09 04:58:16;;;;;;;0.83;0.83;;;21.20;85.50;;;;;;5127369;28;20470;-93
2022/06/09 05:00:42;;;;;;;1.30;1.00;;;21.20;85.50;;;;;;5130368;28;20179;-93
2022/06/09 05:03:11;;;;;;;1.33;1.00;;;21.20;85.60;;;;;;5129297;28;20196;-93
2022/06/09 05:05:39;;;;;;;1.93;0.90;;;21.20;85.60;;;;;;5131401;27;20175;-93
2022/06/09 05:08:05;;;;;;;1.07;1.00;;;21.20;85.60;;;;;;5135706;27;20176;-93
2022/06/09 05:10:38;;;;;;;1.20;1.10;;;21.20;85.70;;;;;;5133275;27;20197;-94
2022/06/09 05:13:06;;;;;;;2.47;1.00;;;21.20;85.70;;;;;;5135083;27;20178;-93
2022/06/09 05:15:35;;;;;;;1.27;1.03;;;21.20;85.70;;;;;;5135067;27;20195;-93
2022/06/09 05:18:02;;;;;;;1.20;1.00;;;21.20;85.70;;;;;;5133756;27;20269;-93
2022/06/09 05:20:28;;;;;;;1.10;1.00;;;21.20;85.70;;;;;;5133153;27;20184;-93
2022/06/09 05:22:54;;;;;;;1.53;1.00;;;21.20;85.70;;;;;;5132656;27;20173;-93
2022/06/09 05:25:20;;;;;;;2.43;1.30;;;21.20;85.70;;;;;;5130994;27;20230;-93
2022/06/09 05:27:46;;;;;;;1.43;1.00;;;21.20;85.70;;;;;;5131451;27;20185;-92
2022/06/09 05:30:15;;;;;;;1.43;1.10;;;21.20;85.80;;;;;;5131426;27;20234;-93
2022/06/09 05:32:41;;;;;;;3.20;1.40;;;21.20;85.80;;;;;;5131543;27;20166;-93
2022/06/09 05:35:09;;;;;;;1.60;1.23;;;21.20;85.80;;;;;;5129049;27;20179;-93
2022/06/09 05:45:51;;;;;;;2.83;1.23;;;21.20;85.70;;;;;;5148118;27;20226;-94
2022/06/09 05:48:18;;;;;;;2.93;1.30;;;21.20;85.70;;;;;;5131097;27;20171;-94
2022/06/09 05:50:46;;;;;;;1.83;1.40;;;21.20;85.70;;;;;;5130719;27;20275;-94
2022/06/09 05:53:11;;;;;;;1.70;1.30;;;21.20;85.60;;;;;;5131998;27;20469;-94
2022/06/09 05:55:37;;;;;;;1.27;1.17;;;21.30;85.60;;;;;;5132413;27;20208;-94
2022/06/09 05:58:04;;;;;;;6.37;1.30;;;21.20;85.40;;;;;;5133687;27;20393;-93
2022/06/09 06:00:30;;;;;;;1.30;1.20;;;21.20;85.30;;;;;;5132025;27;20166;-94
2022/06/09 06:02:57;;;;;;;1.60;1.40;;;21.30;85.50;;;;;;5129784;27;20242;-94
2022/06/09 06:08:12;;;;;;;1.50;1.40;;;21.20;85.30;;;;;;5155929;27;20180;-94
2022/06/09 06:10:37;;;;;;;1.80;1.40;;;21.30;85.30;;;;;;5138732;27;20173;-94
2022/06/09 06:13:03;;;;;;;2.63;1.53;;;21.30;85.30;;;;;;5136881;27;20198;-94
2022/06/09 06:15:29;;;;;;;2.70;1.53;;;21.30;85.40;;;;;;5140875;27;20237;-94
2022/06/09 06:35:25;;;;;;;1.93;1.70;;;21.30;86.10;;;;;;5162417;27;20209;-94
2022/06/09 06:37:51;;;;;;;2.63;1.60;;;21.30;86.10;;;;;;5144455;27;20203;-95
2022/06/09 06:40:17;;;;;;;3.23;1.90;;;21.30;86.30;;;;;;5144530;27;20160;-94
2022/06/09 06:42:42;;;;;;;4.47;2.00;;;21.30;86.40;;;;;;5144734;27;20160;-95
2022/06/09 06:48:34;;;;;;;3.17;2.10;;;21.40;86.50;;;;;;5162279;27;20222;-95
2022/06/09 06:51:00;;;;;;;4.03;2.37;;;21.40;86.40;;;;;;5141807;27;20185;-94
2022/06/09 06:53:26;;;;;;;4.40;2.40;;;21.40;86.60;;;;;;5139828;27;20178;-94
2022/06/09 06:55:51;;;;;;;4.13;2.63;;;21.40;86.80;;;;;;5139723;27;20208;-93
2022/06/09 06:58:17;;;;;;;2.97;2.53;;;21.40;86.70;;;;;;5139390;27;20206;-94
2022/06/09 07:00:43;;;;;;;4.13;2.60;;;21.40;86.60;;;;;;5138523;27;20213;-94
2022/06/09 07:03:10;;;;;;;2.97;2.53;;;21.40;86.80;;;;;;5137244;27;20174;-94
2022/06/09 07:05:49;;;;;;;3.73;3.03;;;21.40;86.70;;;;;;5138310;27;20166;-94
2022/06/09 07:08:16;;;;;;;5.03;3.17;;;21.40;86.60;;;;;;5139364;27;20432;-94
2022/06/09 07:10:44;;;;;;;4.30;3.10;;;21.40;86.50;;;;;;5140694;27;20174;-94
2022/06/09 07:13:10;;;;;;;4.37;3.00;;;21.40;86.50;;;;;;5137513;27;20241;-94
2022/06/09 07:15:36;;;;;;;5.30;3.10;;;21.50;86.50;;;;;;5137222;27;20229;-94
2022/06/09 07:18:01;;;;;;;6.80;3.50;;;21.50;86.30;;;;;;5138007;27;20166;-94
2022/06/09 07:20:27;;;;;;;5.77;3.50;;;21.50;86.40;;;;;;5137838;27;20172;-94
2022/06/09 07:26:22;;;;;;;5.07;3.43;;;21.60;86.00;;;;;;5161729;27;20169;-93
2022/06/09 07:28:48;;;;;;;5.67;3.77;;;21.60;85.80;;;;;;5143604;27;20199;-94
2022/06/09 07:31:14;;;;;;;4.50;3.70;;;21.70;85.50;;;;;;5143962;27;20165;-93
2022/06/09 07:33:41;;;;;;;6.93;4.03;;;21.70;85.40;;;;;;5143904;27;20218;-94
2022/06/09 07:36:11;;;;;;;5.60;4.03;;;21.70;85.40;;;;;;5143801;27;20252;-95
2022/06/09 07:38:37;;;;;;;9.70;4.03;;;21.70;85.40;;;;;;5143862;27;20179;-94
2022/06/09 07:41:04;;;;;;;7.03;4.03;;;21.70;85.50;;;;;;5143752;27;20173;-95
2022/06/09 07:43:30;;;;;;;6.57;4.10;;;21.70;85.40;;;;;;5143681;27;20179;-94
2022/06/09 07:45:56;;;;;;;5.13;3.70;;;21.70;85.50;;;;;;5143662;27;20154;-94
2022/06/09 07:48:21;;;;;;;5.47;4.43;;;21.70;85.60;;;;;;5143663;27;20153;-95
2022/06/09 07:50:50;;;;;;;5.97;3.97;;;21.60;85.70;;;;;;5143513;27;20225;-95
2022/06/09 07:53:17;;;;;;;5.47;4.33;;;21.60;85.80;;;;;;5143514;27;20160;-94
2022/06/09 07:55:43;;;;;;;4.93;4.43;;;21.60;86.00;;;;;;5143540;27;20193;-94
2022/06/09 07:58:09;;;;;;;5.10;4.40;;;21.60;86.00;;;;;;5143324;27;20177;-94
2022/06/09 08:00:35;;;;;;;6.10;4.57;;;21.60;86.10;;;;;;5143425;27;20169;-95
2022/06/09 08:03:04;;;;;;;7.53;5.13;;;21.60;86.00;;;;;;5143310;27;20161;-95
2022/06/09 08:05:31;;;;;;;6.17;4.77;;;21.60;86.10;;;;;;5143110;27;20146;-95
2022/06/09 08:11:21;;;;;;;5.53;4.47;;;21.60;86.00;;;;;;5160748;27;20191;-95
2022/06/09 08:13:47;;;;;;;6.37;5.13;;;21.60;85.90;;;;;;5143133;27;20187;-95
2022/06/09 08:16:12;;;;;;;8.87;5.30;;;21.60;85.90;;;;;;5142688;27;20202;-94
2022/06/09 08:18:38;;;;;;;6.87;5.20;;;21.70;86.00;;;;;;5141907;27;20169;-94
2022/06/09 08:21:04;;;;;;;6.57;5.57;;;21.70;85.80;;;;;;5140407;27;20173;-94
2022/06/09 08:23:30;;;;;;;6.47;5.20;;;21.70;86.00;;;;;;5138817;27;20180;-94
2022/06/09 08:26:03;;;;;;;8.33;5.23;;;21.70;85.90;;;;;;5138448;27;20229;-94
2022/06/09 08:28:29;;;;;;;8.43;5.60;;;21.70;85.90;;;;;;5138344;28;20589;-93
2022/06/09 08:30:58;;;;;;;6.90;5.47;;;21.70;85.80;;;;;;5129482;28;20224;-94
2022/06/09 08:33:25;;;;;;;7.77;5.63;;;21.70;85.70;;;;;;5128533;27;20226;-93
2022/06/09 08:35:53;;;;;;;7.43;5.90;;;21.70;85.80;;;;;;5128815;27;20219;-93
2022/06/09 08:38:19;;;;;;;7.90;5.87;;;21.70;85.70;;;;;;5128852;27;20558;-94
2022/06/09 08:40:59;;;;;;;7.50;5.73;;;21.70;85.70;;;;;;5128792;28;20174;-94
2022/06/09 08:43:45;;;;;;;6.80;6.10;;;21.70;85.60;;;;;;5128887;28;20169;-94
2022/06/09 08:46:18;;;;;;;7.60;5.77;;;21.70;85.60;;;;;;5130379;28;20189;-94
2022/06/09 08:48:47;;;;;;;6.80;6.00;;;21.70;85.70;;;;;;5130501;28;20169;-94
2022/06/09 08:51:33;;;;;;;6.53;5.87;;;21.80;85.70;;;;;;5131062;28;20227;-94
2022/06/09 08:54:05;;;;;;;6.90;6.13;;;21.80;85.30;;;;;;5128370;28;20173;-94
2022/06/09 08:56:37;;;;;;;6.83;6.13;;;21.90;84.90;;;;;;5129738;28;20212;-94
2022/06/09 08:59:12;;;;;;;7.50;5.93;;;22.00;84.40;;;;;;5130026;28;20189;-94
2022/06/09 09:02:03;;;;;;;7.13;6.03;;;22.20;83.40;;;;;;5134609;28;20196;-94
2022/06/09 09:04:39;;;;;;;6.67;5.60;;;22.40;81.40;;;;;;5132567;28;20170;-94
2022/06/09 09:07:25;;;;;;;6.30;5.63;;;22.60;79.20;;;;;;5135106;28;20165;-95
2022/06/09 09:10:11;;;;;;;6.20;5.57;;;22.70;77.80;;;;;;5136151;28;20188;-95
2022/06/09 09:12:48;;;;;;;6.83;5.80;;;22.70;77.30;;;;;;5137148;28;20170;-94
2022/06/09 09:19:34;;;;;;;7.70;5.90;;;22.90;75.90;;;;;;5158235;27;20239;-95
2022/06/09 09:25:20;;;;;;;8.00;5.83;;;23.00;75.40;;;;;;5027244;28;20196;-96
2022/06/09 09:28:05;;;;;;;7.30;5.63;;;23.00;74.90;;;;;;5138653;27;20161;-95
2022/06/09 09:31:15;;;;;;;6.50;5.80;;;23.10;74.60;;;;;;5141877;27;20187;-95
2022/06/09 09:33:40;;;;;;;6.93;5.50;;;23.20;74.30;;;;;;5086657;27;20181;-95
2022/06/09 09:46:55;;;;;;;7.27;5.83;;;23.30;73.70;;;;;;5056890;28;20169;-95
2022/06/09 09:49:31;;;;;;;7.13;5.63;;;23.40;73.30;;;;;;5050094;27;20228;-94
2022/06/09 09:51:58;;;;;;;5.70;5.20;;;23.40;73.50;;;;;;5142319;27;20245;-96
2022/06/09 09:54:27;;;;;;;5.73;5.07;;;23.40;73.40;;;;;;5144060;27;20237;-95
2022/06/09 09:57:15;;;;;;;6.07;5.57;;;23.40;73.50;;;;;;5143894;27;20220;-95
2022/06/09 09:59:51;;;;;;;6.17;4.87;;;23.40;73.60;;;;;;5144183;27;20189;-95
2022/06/09 10:28:45;;;;;;;8.87;5.87;;;23.70;73.10;;;;;;5162940;27;20169;-94
2022/06/09 10:31:36;;;;;;;6.37;5.73;;;23.60;73.40;;;;;;5144961;27;20174;-96
2022/06/09 10:34:33;;;;;;;6.97;5.63;;;23.60;73.90;;;;;;5144927;27;20150;-96
2022/06/09 10:37:05;;;;;;;7.40;5.90;;;23.60;74.20;;;;;;5144949;27;20196;-96
2022/06/09 10:43:05;;;;;;;6.10;5.50;;;23.70;74.00;;;;;;5059756;28;20224;-96
2022/06/09 10:46:00;;;;;;;7.10;5.63;;;23.70;73.70;;;;;;5039210;28;20236;-94
2022/06/09 10:58:04;;;;;;;6.50;5.90;;;23.80;73.30;;;;;;5158769;27;20234;-95
2022/06/09 11:00:35;;;;;;;8.33;5.40;;;23.90;73.30;;;;;;5141842;27;20209;-94
2022/06/09 11:03:09;;;;;;;6.70;5.80;;;23.90;73.10;;;;;;5140851;28;20301;-94
2022/06/09 11:06:13;;;;;;;6.60;5.77;;;23.90;73.00;;;;;;5142288;27;20166;-95
2022/06/09 11:09:26;;;;;;;6.67;5.70;;;23.90;73.00;;;;;;5140112;27;20164;-95
2022/06/09 11:12:36;;;;;;;6.23;5.40;;;23.90;73.20;;;;;;5141219;27;20245;-95
2022/06/09 11:15:10;;;;;;;6.53;5.93;;;23.90;73.50;;;;;;5103382;27;20181;-96
2022/06/09 11:34:54;;;;;;;7.57;5.33;;;24.10;73.10;;;;;;5160417;27;20187;-95
2022/06/09 11:37:47;;;;;;;5.93;5.37;;;24.00;73.30;;;;;;5142244;27;20273;-94
2022/06/09 11:40:32;;;;;;;6.50;5.10;;;24.10;73.40;;;;;;5143288;27;20165;-96
2022/06/09 11:46:30;;;;;;;6.20;5.33;;;24.10;73.20;;;;;;5159660;27;20164;-95
2022/06/09 11:48:59;;;;;;;7.33;4.87;;;24.10;73.30;;;;;;5142003;27;20175;-95
2022/06/09 11:51:28;;;;;;;6.27;5.00;;;24.10;73.30;;;;;;5136895;27;20272;-94
2022/06/09 11:53:59;;;;;;;6.70;4.90;;;24.10;73.20;;;;;;5133397;27;20174;-95
2022/06/09 11:56:36;;;;;;;6.17;4.87;;;24.20;73.20;;;;;;5133238;27;20250;-94
2022/06/09 11:59:22;;;;;;;5.83;4.67;;;24.20;73.20;;;;;;5133052;27;20272;-94
2022/06/09 12:02:20;;;;;;;4.90;4.50;;;24.20;73.20;;;;;;5131761;27;20208;-94
2022/06/09 12:05:00;;;;;;;5.50;4.93;;;24.20;73.10;;;;;;5129555;27;20166;-94
2022/06/09 12:08:03;;;;;;;5.97;4.83;;;24.20;73.10;;;;;;5128737;27;20460;-94
2022/06/09 12:14:14;;;;;;;5.33;4.27;;;24.20;73.00;;;;;;5154433;27;20176;-94
2022/06/09 12:16:56;;;;;;;4.43;4.03;;;24.30;73.00;;;;;;5128971;27;20285;-94
2022/06/09 12:19:25;;;;;;;5.43;4.23;;;24.30;72.90;;;;;;5132878;27;20185;-93
2022/06/09 12:22:30;;;;;;;4.20;3.80;;;24.30;72.90;;;;;;5133817;27;20193;-94
2022/06/09 12:25:08;;;;;;;4.30;3.90;;;24.30;73.10;;;;;;5131451;27;20448;-94
2022/06/09 12:27:36;;;;;;;4.30;3.90;;;24.30;73.10;;;;;;5115822;27;20253;-93
2022/06/09 12:30:02;;;;;;;4.77;3.70;;;24.20;73.10;;;;;;5132650;27;20205;-94
2022/06/09 12:33:13;;;;;;;4.73;3.60;;;24.20;73.40;;;;;;5135856;27;20188;-94
2022/06/09 12:35:59;;;;;;;4.73;4.03;;;24.20;73.90;;;;;;5117694;27;20227;-95
2022/06/09 12:38:33;;;;;;;4.40;4.00;;;24.20;74.10;;;;;;5139846;28;20158;-95
2022/06/09 12:41:09;;;;;;;3.90;3.53;;;24.20;74.40;;;;;;5139258;27;20184;-94
2022/06/09 12:43:42;;;;;;;3.97;3.57;;;24.20;74.70;;;;;;5133125;28;20161;-94
2022/06/09 12:46:32;;;;;;;3.93;3.53;;;24.10;74.70;;;;;;5132051;28;20183;-94
2022/06/09 12:49:49;;;;;;;3.87;3.40;;;24.10;75.20;;;;;;5134851;28;20158;-94
2022/06/09 12:52:43;;;;;;;3.83;3.43;;;24.10;75.40;;;;;;5138780;28;20168;-94
2022/06/09 12:55:32;;;;;;;3.83;3.40;;;24.10;75.20;;;;;;5135932;28;20173;-94
2022/06/09 12:58:03;;;;;;;3.33;3.03;;;24.00;75.30;;;;;;5137176;28;20169;-94
2022/06/09 13:00:34;;;;;;;3.87;3.27;;;24.00;75.30;;;;;;5139084;28;20208;-94
2022/06/09 13:03:52;;;;;;;3.40;3.10;;;24.00;75.40;;;;;;5139599;27;20162;-94
2022/06/09 13:06:30;;;;;;;3.43;3.13;;;24.00;75.40;;;;;;5141663;28;20158;-95
2022/06/09 13:09:19;;;;;;;3.30;3.00;;;24.00;75.30;;;;;;5141814;27;20188;-95
2022/06/09 13:28:54;;;;;;;3.90;2.60;;;24.00;75.40;;;;;;5161925;27;20168;-95
2022/06/09 13:34:41;;;;;;;2.57;2.37;;;23.90;75.90;;;;;;5128299;22;20300;-6
2022/06/09 13:37:17;;;;;;;2.90;2.60;;;23.90;75.90;;;;;;5109231;28;20533;-5
2022/06/09 13:40:09;;;;;;;3.10;2.80;;;23.90;75.90;;;;;;5112307;28;20188;-6
2022/06/09 13:42:48;;;;;;;2.50;2.30;;;23.80;75.90;;;;;;5093031;28;20673;-6
2022/06/09 13:45:20;;;;;;;3.30;2.67;;;23.80;76.00;;;;;;5110044;28;20164;-6
2022/06/09 13:48:07;;;;;;;3.80;2.77;;;23.90;75.90;;;;;;5094143;28;20248;-7
2022/06/09 13:50:43;;;;;;;3.23;2.80;;;23.90;75.70;;;;;;5092202;28;20180;-6
2022/06/09 13:53:29;;;;;;;3.77;2.47;;;23.90;75.80;;;;;;5111137;28;20177;-6
2022/06/09 13:55:54;;;;;;;2.40;2.20;;;23.90;75.70;;;;;;5109440;28;20212;-6
2022/06/09 13:58:21;;;;;;;2.50;2.30;;;23.90;75.60;;;;;;5109210;28;20170;-5
2022/06/09 14:00:51;;;;;;;3.57;2.47;;;23.90;75.70;;;;;;5111082;28;20549;-6
2022/06/09 14:03:26;;;;;;;2.70;2.50;;;23.90;75.70;;;;;;5109570;28;20182;-6
2022/06/09 14:05:58;;;;;;;3.43;2.30;;;23.90;75.80;;;;;;5093553;28;20507;-5
2022/06/09 14:08:26;;;;;;;2.27;2.10;;;23.80;75.60;;;;;;5110488;28;20206;-6
2022/06/09 14:10:53;;;;;;;2.27;2.03;;;23.80;75.70;;;;;;5092804;28;20174;-6
2022/06/09 14:13:19;;;;;;;2.30;2.10;;;23.80;76.40;;;;;;5111371;28;20178;-6
2022/06/09 14:15:49;;;;;;;2.93;2.37;;;23.80;75.70;;;;;;5093531;28;20212;-6
2022/06/09 14:18:22;;;;;;;2.40;2.20;;;23.80;75.70;;;;;;5117630;28;20173;-6
2022/06/09 14:20:49;;;;;;;2.30;2.10;;;23.80;75.60;;;;;;5100320;28;20630;-5
2022/06/09 14:23:23;;;;;;;3.00;2.20;;;23.80;75.60;;;;;;5111684;28;20166;-6
2022/06/09 14:25:57;;;;;;;2.00;1.90;;;23.80;75.60;;;;;;5093759;28;20177;-7
2022/06/09 14:28:27;;;;;;;2.10;1.90;;;23.80;75.60;;;;;;5093301;28;20208;-5
2022/06/09 14:30:54;;;;;;;2.80;1.90;;;23.80;75.50;;;;;;5111027;28;20174;-6
2022/06/09 14:33:19;;;;;;;3.33;2.00;;;23.80;75.60;;;;;;5110691;28;20273;-5
2022/06/09 14:35:45;;;;;;;2.30;2.00;;;23.80;75.50;;;;;;5110690;28;20517;-6
2022/06/09 14:38:12;;;;;;;2.20;1.70;;;23.80;75.60;;;;;;5110748;28;20253;-5
2022/06/09 14:40:41;;;;;;;2.60;1.87;;;23.80;75.50;;;;;;5111809;28;20547;-6
2022/06/09 14:43:08;;;;;;;2.23;1.90;;;23.80;75.60;;;;;;5110793;28;20190;-4
2022/06/09 14:45:38;;;;;;;2.10;1.90;;;23.80;75.60;;;;;;5111032;28;20166;-5
2022/06/09 14:48:04;;;;;;;2.53;1.97;;;23.80;75.80;;;;;;5111501;28;20686;-6
2022/06/09 14:50:30;;;;;;;3.43;2.30;;;23.70;75.90;;;;;;5092732;28;20578;-6
2022/06/09 14:52:56;;;;;;;3.83;1.90;;;23.70;76.40;;;;;;5110128;28;20171;-5
2022/06/09 14:55:22;;;;;;;1.87;1.77;;;23.70;76.70;;;;;;5110821;28;20178;-6
2022/06/09 14:57:49;;;;;;;4.03;1.70;;;23.70;77.10;;;;;;5109940;28;20165;-6
2022/06/09 15:00:18;;;;;;;3.73;1.90;;;23.70;77.30;;;;;;5093356;28;20165;-6
2022/06/09 15:02:44;;;;;;;2.60;1.70;;;23.70;77.40;;;;;;5109901;28;20450;-6
2022/06/09 15:05:10;;;;;;;3.23;1.90;;;23.70;77.50;;;;;;5108887;28;20162;-6
2022/06/09 15:07:38;;;;;;;3.50;1.57;;;23.70;77.40;;;;;;5110755;28;20170;-5
2022/06/09 15:10:05;;;;;;;3.27;1.83;;;23.60;77.40;;;;;;5109677;28;20469;-6
2022/06/09 15:12:30;;;;;;;3.87;1.80;;;23.60;77.20;;;;;;5092691;28;20364;-6
2022/06/09 15:14:56;;;;;;;2.50;1.60;;;23.60;77.10;;;;;;5110442;28;20170;-5
2022/06/09 15:17:22;;;;;;;3.23;1.43;;;23.60;77.00;;;;;;5109963;28;20212;-6
2022/06/09 15:19:48;;;;;;;3.37;1.57;;;23.60;76.90;;;;;;5092430;28;20181;-6
2022/06/09 15:22:14;;;;;;;2.07;1.43;;;23.60;76.90;;;;;;5092500;28;20662;-6
2022/06/09 15:24:40;;;;;;;2.50;1.70;;;23.60;76.90;;;;;;5109427;28;20201;-6
2022/06/09 15:27:06;;;;;;;1.70;1.43;;;23.60;76.90;;;;;;5109466;28;20455;-6
2022/06/09 15:29:32;;;;;;;3.60;1.47;;;23.60;76.80;;;;;;5092052;28;20431;-5
2022/06/09 15:31:58;;;;;;;2.17;1.67;;;23.60;76.90;;;;;;5110129;28;20365;-6